createdAt,value
2018-04-06T00:00:32.410Z,2.33
2018-04-06T00:03:03.142Z,2.70
2018-04-06T00:05:33.699Z,3.20
2018-04-06T00:08:07.511Z,2.35
2018-04-06T00:10:38.426Z,6.30
2018-04-06T00:13:11.819Z,6.53
2018-04-06T00:15:42.378Z,4.35
2018-04-06T00:18:12.926Z,2.55
2018-04-06T00:20:44.802Z,3.85
2018-04-06T00:23:15.465Z,3.78
2018-04-06T00:25:46.098Z,5.55
2018-04-06T00:28:17.072Z,5.65
2018-04-06T00:30:48.199Z,4.97
2018-04-06T00:33:18.908Z,3.20
2018-04-06T00:35:49.566Z,4.82
2018-04-06T00:38:20.683Z,3.58
2018-04-06T00:40:52.759Z,7.12
2018-04-06T00:43:23.646Z,3.62
2018-04-06T00:45:54.460Z,3.17
2018-04-06T00:48:24.954Z,6.32
2018-04-06T00:50:56.038Z,3.20
2018-04-06T00:53:35.233Z,4.32
2018-04-06T00:56:05.952Z,4.67
2018-04-06T00:58:38.016Z,3.62
2018-04-06T01:01:09.246Z,3.83
2018-04-06T01:03:40.162Z,3.10
2018-04-06T01:06:11.326Z,3.27
2018-04-06T01:08:42.398Z,3.80
2018-04-06T01:11:13.050Z,3.73
2018-04-06T01:13:43.828Z,3.35
2018-04-06T01:16:14.795Z,4.93
2018-04-06T01:18:46.974Z,3.70
2018-04-06T01:21:17.610Z,2.95
2018-04-06T01:23:48.464Z,7.20
2018-04-06T01:26:19.104Z,3.80
2018-04-06T01:28:50.204Z,5.40
2018-04-06T01:31:21.587Z,4.17
2018-04-06T01:33:52.304Z,4.73
2018-04-06T01:36:22.965Z,5.40
2018-04-06T01:38:53.916Z,3.97
2018-04-06T01:41:24.648Z,4.97
2018-04-06T01:43:55.349Z,4.10
2018-04-06T01:46:25.996Z,4.37
2018-04-06T01:48:56.975Z,5.80
2018-04-06T01:51:27.624Z,6.47
2018-04-06T01:53:58.371Z,4.27
2018-04-06T01:56:28.986Z,5.60
2018-04-06T01:58:59.933Z,3.60
2018-04-06T02:01:30.627Z,4.17
2018-04-06T02:04:01.552Z,4.73
2018-04-06T02:06:32.118Z,5.20
2018-04-06T02:09:06.093Z,5.83
2018-04-06T02:11:36.772Z,5.43
2018-04-06T02:14:08.364Z,3.90
2018-04-06T02:16:41.756Z,6.13
2018-04-06T02:19:12.332Z,4.17
2018-04-06T02:21:44.969Z,5.53
2018-04-06T02:24:15.748Z,6.33
2018-04-06T02:26:46.368Z,5.30
2018-04-06T02:29:17.134Z,4.20
2018-04-06T02:31:49.974Z,6.27
2018-04-06T02:34:20.776Z,5.67
2018-04-06T02:36:51.755Z,4.43
2018-04-06T02:39:22.386Z,4.33
2018-04-06T02:41:52.993Z,6.10
2018-04-06T02:44:23.674Z,5.27
2018-04-06T02:46:54.276Z,4.57
2018-04-06T02:49:25.371Z,3.83
2018-04-06T02:51:57.306Z,4.17
2018-04-06T02:54:28.078Z,2.97
2018-04-06T02:56:58.703Z,5.17
2018-04-06T02:59:29.454Z,4.60
2018-04-06T03:02:01.583Z,7.03
2018-04-06T03:04:32.212Z,5.07
2018-04-06T03:07:02.927Z,6.03
2018-04-06T03:09:33.600Z,4.70
2018-04-06T03:12:04.750Z,4.53
2018-04-06T03:14:35.296Z,4.17
2018-04-06T03:17:05.952Z,5.13
2018-04-06T03:19:36.622Z,5.53
2018-04-06T03:22:08.216Z,5.30
2018-04-06T03:24:39.146Z,7.43
2018-04-06T03:27:10.109Z,4.80
2018-04-06T03:29:40.867Z,5.63
2018-04-06T03:32:11.791Z,6.60
2018-04-06T03:34:42.478Z,4.53
2018-04-06T03:37:13.078Z,5.30
2018-04-06T03:39:44.204Z,5.73
2018-04-06T03:42:14.976Z,6.00
2018-04-06T03:44:45.560Z,6.47
2018-04-06T03:47:16.334Z,6.90
2018-04-06T03:49:46.970Z,6.83
2018-04-06T03:52:17.591Z,8.60
2018-04-06T03:54:48.602Z,6.40
2018-04-06T03:57:19.380Z,6.40
2018-04-06T03:59:49.925Z,6.77
2018-04-06T04:02:20.719Z,4.20
2018-04-06T04:04:51.470Z,6.53
2018-04-06T04:07:22.046Z,6.97
2018-04-06T04:09:52.801Z,7.03
2018-04-06T04:12:24.183Z,6.53
2018-04-06T04:14:54.826Z,8.30
2018-04-06T04:17:25.498Z,7.90
2018-04-06T04:19:56.253Z,7.57
2018-04-06T04:22:27.120Z,10.47
2018-04-06T04:24:57.888Z,8.80
2018-04-06T04:27:28.936Z,7.90
2018-04-06T04:29:59.630Z,7.60
2018-04-06T04:32:30.292Z,8.97
2018-04-06T04:35:01.174Z,10.00
2018-04-06T04:37:32.032Z,8.67
2018-04-06T04:40:02.691Z,7.93
2018-04-06T04:42:33.675Z,9.13
2018-04-06T04:45:04.393Z,7.30
2018-04-06T04:47:35.175Z,7.93
2018-04-06T04:50:05.765Z,10.07
2018-04-06T04:52:36.802Z,13.10
2018-04-06T04:55:07.667Z,8.80
2018-04-06T04:57:38.361Z,6.50
2018-04-06T05:00:10.423Z,8.57
2018-04-06T05:02:41.468Z,7.67
2018-04-06T05:05:12.456Z,8.50
2018-04-06T05:07:43.099Z,11.40
2018-04-06T05:10:13.834Z,11.90
2018-04-06T05:12:44.789Z,10.13
2018-04-06T05:15:15.651Z,6.07
2018-04-06T05:17:46.365Z,7.53
2018-04-06T05:20:17.024Z,11.20
2018-04-06T05:22:47.904Z,10.53
2018-04-06T05:25:18.549Z,11.43
2018-04-06T05:27:53.236Z,15.43
2018-04-06T05:30:23.947Z,11.00
2018-04-06T05:32:55.058Z,14.27
2018-04-06T05:35:26.090Z,13.07
2018-04-06T05:37:56.730Z,10.33
2018-04-06T05:40:27.684Z,10.35
2018-04-06T05:42:58.491Z,15.60
2018-04-06T05:45:29.080Z,11.90
2018-04-06T05:47:59.803Z,13.40
2018-04-06T05:50:30.440Z,11.53
2018-04-06T05:53:01.126Z,10.27
2018-04-06T05:55:31.884Z,12.83
2018-04-06T05:58:03.972Z,16.83
2018-04-06T06:00:34.726Z,12.53
2018-04-06T06:03:05.356Z,11.68
2018-04-06T06:05:36.019Z,12.40
2018-04-06T06:08:06.665Z,11.77
2018-04-06T06:10:37.276Z,9.47
2018-04-06T06:13:08.330Z,10.73
2018-04-06T06:15:39.295Z,12.93
2018-04-06T06:18:10.198Z,9.87
2018-04-06T06:20:40.990Z,14.48
2018-04-06T06:23:12.110Z,11.40
2018-04-06T06:25:42.618Z,12.15
2018-04-06T06:28:13.266Z,12.30
2018-04-06T06:30:44.023Z,12.25
2018-04-06T06:33:14.851Z,11.18
2018-04-06T06:35:45.458Z,11.55
2018-04-06T06:38:16.396Z,10.77
2018-04-06T06:40:47.094Z,8.65
2018-04-06T06:43:17.720Z,10.02
2018-04-06T06:45:49.402Z,15.20
2018-04-06T06:48:20.512Z,11.57
2018-04-06T06:50:51.189Z,15.90
2018-04-06T06:53:21.856Z,16.52
2018-04-06T06:55:52.598Z,13.52
2018-04-06T06:58:23.260Z,13.90
2018-04-06T07:00:53.888Z,13.15
2018-04-06T07:03:24.682Z,15.18
2018-04-06T07:05:55.766Z,14.65
2018-04-06T07:08:26.558Z,17.35
2018-04-06T07:10:57.842Z,15.43
2018-04-06T07:13:29.890Z,14.90
2018-04-06T07:16:00.668Z,16.20
2018-04-06T07:18:31.302Z,18.60
2018-04-06T07:21:02.393Z,16.73
2018-04-06T07:23:33.162Z,14.32
2018-04-06T07:26:04.279Z,15.98
2018-04-06T07:28:35.012Z,14.30
2018-04-06T07:31:05.732Z,15.70
2018-04-06T07:33:36.915Z,15.18
2018-04-06T07:36:08.132Z,13.20
2018-04-06T07:38:38.819Z,13.95
2018-04-06T07:41:09.877Z,14.82
2018-04-06T07:43:40.518Z,15.07
2018-04-06T07:46:11.708Z,10.80
2018-04-06T07:48:42.451Z,14.87
2018-04-06T07:51:13.258Z,15.35
2018-04-06T07:53:44.260Z,12.75
2018-04-06T07:56:14.954Z,9.60
2018-04-06T07:58:45.912Z,9.68
2018-04-06T08:01:16.590Z,13.70
2018-04-06T08:03:47.282Z,7.85
2018-04-06T08:06:18.212Z,11.85
2018-04-06T08:08:48.990Z,9.50
2018-04-06T08:14:13.857Z,10.88
2018-04-06T08:16:44.751Z,9.35
2018-04-06T08:19:15.490Z,9.48
2018-04-06T08:21:50.422Z,7.95
2018-04-06T08:24:21.130Z,8.93
2018-04-06T08:26:51.798Z,8.40
2018-04-06T08:29:22.414Z,8.27
2018-04-06T08:43:22.478Z,7.97
2018-04-06T08:45:52.660Z,6.70
2018-04-06T08:48:23.061Z,7.07
2018-04-06T08:50:53.681Z,6.60
2018-04-06T08:53:24.311Z,6.45
2018-04-06T08:55:54.987Z,7.22
2018-04-06T08:58:26.746Z,6.87
2018-04-06T09:00:57.812Z,8.68
2018-04-06T09:03:28.632Z,5.85
2018-04-06T09:05:59.443Z,6.05
2018-04-06T09:08:30.353Z,7.05
2018-04-06T09:11:02.588Z,7.30
2018-04-06T09:13:33.404Z,6.35
2018-04-06T09:16:04.251Z,5.60
2018-04-06T09:18:35.207Z,6.97
2018-04-06T09:21:08.611Z,7.37
2018-04-06T09:23:39.458Z,6.90
2018-04-06T09:26:10.979Z,6.10
2018-04-06T09:28:41.888Z,5.65
2018-04-06T09:31:13.081Z,7.43
2018-04-06T09:33:43.926Z,5.60
2018-04-06T09:36:14.897Z,5.80
2018-04-06T09:38:45.503Z,5.62
2018-04-06T09:41:17.167Z,6.00
2018-04-06T09:43:47.877Z,5.90
2018-04-06T09:46:18.571Z,5.43
2018-04-06T09:48:49.253Z,6.20
2018-04-06T09:51:20.215Z,7.15
2018-04-06T09:53:51.101Z,6.55
2018-04-06T09:56:22.008Z,5.07
2018-04-06T09:58:52.780Z,5.80
2018-04-06T10:01:27.405Z,5.20
2018-04-06T10:03:58.213Z,5.60
2018-04-06T10:06:29.159Z,5.75
2018-04-06T10:08:59.798Z,4.68
2018-04-06T10:11:30.672Z,5.62
2018-04-06T10:14:02.534Z,4.87
2018-04-06T10:16:33.399Z,5.28
2018-04-06T10:19:03.940Z,4.53
2018-04-06T10:21:34.859Z,5.55
2018-04-06T10:24:05.623Z,4.55
2018-04-06T10:26:36.476Z,6.53
2018-04-06T10:29:07.855Z,5.62
2018-04-06T10:31:38.595Z,4.07
2018-04-06T10:34:09.274Z,4.43
2018-04-06T10:36:40.177Z,4.60
2018-04-06T10:39:11.376Z,4.85
2018-04-06T10:41:42.113Z,4.28
2018-04-06T10:44:16.712Z,5.03
2018-04-06T10:46:47.542Z,4.70
2018-04-06T10:49:18.248Z,6.32
2018-04-06T10:51:48.936Z,6.18
2018-04-06T10:54:19.672Z,5.05
2018-04-06T10:56:51.004Z,7.82
2018-04-06T10:59:21.804Z,6.07
2018-04-06T11:01:52.628Z,6.12
2018-04-06T11:04:23.551Z,5.47
2018-04-06T11:06:54.358Z,5.32
2018-04-06T11:09:25.108Z,5.57
2018-04-06T11:11:55.895Z,4.03
2018-04-06T11:14:26.552Z,5.60
2018-04-06T11:16:57.516Z,5.45
2018-04-06T11:19:28.161Z,6.55
2018-04-06T11:21:58.738Z,6.00
2018-04-06T11:24:29.728Z,4.87
2018-04-06T11:27:00.445Z,6.00
2018-04-06T11:29:31.440Z,4.45
2018-04-06T11:32:03.543Z,5.10
2018-04-06T11:34:34.207Z,4.97
2018-04-06T11:37:05.464Z,6.00
2018-04-06T11:39:38.525Z,5.97
2018-04-06T11:44:59.826Z,7.28
2018-04-06T11:47:28.368Z,5.50
2018-04-06T11:49:57.080Z,11.38
2018-04-06T11:52:25.732Z,6.18
2018-04-06T11:54:54.643Z,8.02
2018-04-06T11:57:23.349Z,6.55
2018-04-06T11:59:51.968Z,8.60
2018-04-06T12:02:20.735Z,7.37
2018-04-06T12:04:49.722Z,5.95
2018-04-06T12:07:18.415Z,7.87
2018-04-06T12:09:46.991Z,5.85
2018-04-06T12:12:15.673Z,5.15
2018-04-06T12:14:44.227Z,6.03
2018-04-06T12:17:12.922Z,5.40
2018-04-06T12:19:41.553Z,6.40
2018-04-06T12:22:10.305Z,6.30
2018-04-06T12:24:38.867Z,7.37
2018-04-06T12:27:07.883Z,7.15
2018-04-06T12:29:36.455Z,5.75
2018-04-06T12:32:05.023Z,4.50
2018-04-06T12:34:35.036Z,5.03
2018-04-06T12:37:03.733Z,6.80
2018-04-06T12:39:32.506Z,5.07
2018-04-06T12:42:03.975Z,7.62
2018-04-06T12:44:33.034Z,6.70
2018-04-06T12:47:01.635Z,4.87
2018-04-06T12:49:30.252Z,5.87
2018-04-06T12:52:03.036Z,4.85
2018-04-06T12:54:31.651Z,6.60
2018-04-06T12:57:00.361Z,5.87
2018-04-06T12:59:29.051Z,4.70
2018-04-06T13:01:58.899Z,6.50
2018-04-06T13:04:27.528Z,6.22
2018-04-06T13:06:56.163Z,5.43
2018-04-06T13:09:24.733Z,7.50
2018-04-06T13:11:53.876Z,6.93
2018-04-06T13:14:24.584Z,5.70
2018-04-06T13:16:53.282Z,5.53
2018-04-06T13:19:21.833Z,6.30
2018-04-06T13:21:50.528Z,6.32
2018-04-06T13:24:19.180Z,5.32
2018-04-06T13:26:48.156Z,5.85
2018-04-06T13:29:16.683Z,7.12
2018-04-06T13:31:45.343Z,4.30
2018-04-06T13:34:14.072Z,6.22
2018-04-06T13:36:44.067Z,5.37
2018-04-06T13:39:12.767Z,5.72
2018-04-06T13:41:41.395Z,6.65
2018-04-06T13:44:09.996Z,6.70
2018-04-06T13:46:39.311Z,5.68
2018-04-06T13:49:08.066Z,6.45
2018-04-06T13:51:36.912Z,6.78
2018-04-06T13:54:05.640Z,6.78
2018-04-06T13:56:34.606Z,7.28
2018-04-06T13:59:03.340Z,5.82
2018-04-06T14:01:31.958Z,8.10
2018-04-06T14:04:00.717Z,7.70
2018-04-06T14:06:29.573Z,5.72
2018-04-06T14:08:58.228Z,5.30
2018-04-06T14:11:26.878Z,5.93
2018-04-06T14:13:55.483Z,5.97
2018-04-06T14:16:24.128Z,6.30
2018-04-06T14:18:52.855Z,6.72
2018-04-06T14:21:21.768Z,5.22
2018-04-06T14:23:50.457Z,5.60
2018-04-06T14:26:19.101Z,4.90
2018-04-06T14:28:48.675Z,4.93
2018-04-06T14:31:17.426Z,5.97
2018-04-06T14:33:46.368Z,5.47
2018-04-06T14:36:15.303Z,5.35
2018-04-06T14:38:44.574Z,7.03
2018-04-06T14:41:13.230Z,6.20
2018-04-06T14:43:41.796Z,5.60
2018-04-06T14:46:10.804Z,5.22
2018-04-06T14:48:39.491Z,7.15
2018-04-06T14:51:08.243Z,4.32
2018-04-06T14:53:37.026Z,4.65
2018-04-06T14:56:06.009Z,6.95
2018-04-06T14:58:34.723Z,4.53
2018-04-06T15:01:03.628Z,5.07
2018-04-06T15:03:32.828Z,4.72
2018-04-06T15:06:01.719Z,4.25
2018-04-06T15:08:30.374Z,6.82
2018-04-06T15:10:59.913Z,5.90
2018-04-06T15:13:28.598Z,4.30
2018-04-06T15:15:57.523Z,4.30
2018-04-06T15:18:26.291Z,5.50
2018-04-06T15:20:55.165Z,4.05
2018-04-06T15:23:30.302Z,4.82
2018-04-06T15:25:59.366Z,5.22
2018-04-06T15:28:28.181Z,5.00
2018-04-06T15:30:58.361Z,4.03
2018-04-06T15:33:26.968Z,4.32
2018-04-06T15:35:55.579Z,5.37
2018-04-06T15:38:24.603Z,4.30
2018-04-06T15:40:53.308Z,4.12
2018-04-06T15:43:22.000Z,5.03
2018-04-06T15:45:50.674Z,5.40
2018-04-06T15:48:19.237Z,3.62
2018-04-06T15:50:47.866Z,4.72
2018-04-06T15:53:16.481Z,4.12
2018-04-06T15:55:45.407Z,4.40
2018-04-06T15:58:14.207Z,3.97
2018-04-06T16:00:42.904Z,5.72
2018-04-06T16:03:11.626Z,5.28
2018-04-06T16:05:40.465Z,4.53
2018-04-06T16:08:09.176Z,5.80
2018-04-06T16:10:37.706Z,4.30
2018-04-06T16:13:06.385Z,6.85
2018-04-06T16:15:36.310Z,5.90
2018-04-06T16:18:05.368Z,6.25
2018-04-06T16:20:34.336Z,5.43
2018-04-06T16:23:03.027Z,4.70
2018-04-06T16:25:31.937Z,6.20
2018-04-06T16:28:00.595Z,4.87
2018-04-06T16:30:29.304Z,4.78
2018-04-06T16:32:58.011Z,7.32
2018-04-06T16:35:26.554Z,4.97
2018-04-06T16:37:55.235Z,5.70
2018-04-06T16:40:24.075Z,6.82
2018-04-06T16:42:52.755Z,8.40
2018-04-06T16:45:21.429Z,7.12
2018-04-06T16:47:50.022Z,6.60
2018-04-06T16:50:18.729Z,6.68
2018-04-06T16:52:47.317Z,5.85
2018-04-06T16:55:16.083Z,6.00
2018-04-06T16:57:44.696Z,4.97
2018-04-06T17:00:15.127Z,6.62
2018-04-06T17:02:43.792Z,6.35
2018-04-06T17:05:12.765Z,7.80
2018-04-06T17:07:41.418Z,7.40
2018-04-06T17:10:10.181Z,6.70
2018-04-06T17:12:38.917Z,6.10
2018-04-06T17:15:09.120Z,5.75
2018-04-06T17:17:38.156Z,6.62
2018-04-06T17:20:08.436Z,7.03
2018-04-06T17:22:37.068Z,6.40
2018-04-06T17:25:07.096Z,5.35
2018-04-06T17:27:35.690Z,7.82
2018-04-06T17:30:04.586Z,7.18
2018-04-06T17:32:35.664Z,7.32
2018-04-06T17:35:08.923Z,6.82
2018-04-06T17:37:37.586Z,6.43
2018-04-06T17:40:10.333Z,6.22
2018-04-06T17:42:39.229Z,8.50
2018-04-06T17:45:09.775Z,5.93
2018-04-06T17:47:38.636Z,6.45
2018-04-06T17:50:08.831Z,6.05
2018-04-06T17:52:37.396Z,8.18
2018-04-06T17:55:07.822Z,6.03
2018-04-06T17:57:37.077Z,7.78
2018-04-06T18:00:05.729Z,6.55
2018-04-06T18:02:34.430Z,5.75
2018-04-06T18:05:03.058Z,8.25
2018-04-06T18:07:32.192Z,6.80
2018-04-06T18:10:02.260Z,7.60
2018-04-06T18:12:32.255Z,6.53
2018-04-06T18:15:00.834Z,5.60
2018-04-06T18:17:29.389Z,8.75
2018-04-06T18:19:58.008Z,8.18
2018-04-06T18:22:26.934Z,7.45
2018-04-06T18:24:55.795Z,6.10
2018-04-06T18:27:24.406Z,5.22
2018-04-06T18:29:52.962Z,8.32
2018-04-06T18:32:21.994Z,5.55
2018-04-06T18:34:50.701Z,8.43
2018-04-06T18:37:19.343Z,7.32
2018-04-06T18:39:48.395Z,5.93
2018-04-06T18:42:19.354Z,5.15
2018-04-06T18:44:48.034Z,6.00
2018-04-06T18:47:16.675Z,5.97
2018-04-06T18:49:45.333Z,6.30
2018-04-06T18:52:13.971Z,7.15
2018-04-06T18:54:42.586Z,6.70
2018-04-06T18:57:12.428Z,6.45
2018-04-06T18:59:40.990Z,5.05
2018-04-06T19:02:09.511Z,7.15
2018-04-06T19:04:38.016Z,5.72
2018-04-06T19:07:07.863Z,7.45
2018-04-06T19:09:36.466Z,6.45
2018-04-06T19:12:05.199Z,8.43
2018-04-06T19:14:33.767Z,7.10
2018-04-06T19:17:02.870Z,7.18
2018-04-06T19:19:31.462Z,7.72
2018-04-06T19:22:00.159Z,6.60
2018-04-06T19:24:28.762Z,9.85
2018-04-06T19:26:57.670Z,7.00
2018-04-06T19:29:26.303Z,5.65
2018-04-06T19:31:54.827Z,7.20
2018-04-06T19:34:23.447Z,8.70
2018-04-06T19:36:52.399Z,6.70
2018-04-06T19:39:20.959Z,5.70
2018-04-06T19:41:49.518Z,6.45
2018-04-06T19:44:18.201Z,7.50
2018-04-06T19:46:48.034Z,8.57
2018-04-06T19:49:20.443Z,5.97
2018-04-06T19:51:49.190Z,6.50
2018-04-06T19:54:18.485Z,7.45
2018-04-06T19:56:47.253Z,9.32
2018-04-06T19:59:15.957Z,7.28
2018-04-06T20:01:44.551Z,6.12
2018-04-06T20:04:13.129Z,9.13
2018-04-06T20:06:41.708Z,5.85
2018-04-06T20:09:14.494Z,7.60
2018-04-06T20:11:43.050Z,6.82
2018-04-06T20:14:11.587Z,9.10
2018-04-06T20:16:40.276Z,8.93
2018-04-06T20:19:09.228Z,6.95
2018-04-06T20:21:37.797Z,8.05
2018-04-06T20:24:06.325Z,6.40
2018-04-06T20:26:35.018Z,8.02
2018-04-06T20:29:04.902Z,6.85
2018-04-06T20:31:33.514Z,7.68
2018-04-06T20:34:02.077Z,8.52
2018-04-06T20:36:30.838Z,7.07
2018-04-06T20:38:59.674Z,9.77
2018-04-06T20:41:28.214Z,7.00
2018-04-06T20:43:58.494Z,8.35
2018-04-06T20:46:27.274Z,8.60
2018-04-06T20:48:56.162Z,7.78
2018-04-06T20:51:24.879Z,9.02
2018-04-06T20:53:53.601Z,9.50
2018-04-06T20:56:22.424Z,9.40
2018-04-06T20:58:50.978Z,6.60
2018-04-06T21:01:19.547Z,10.10
2018-04-06T21:03:48.099Z,8.70
2018-04-06T21:06:17.165Z,8.85
2018-04-06T21:08:45.746Z,8.95
2018-04-06T21:11:14.321Z,8.90
2018-04-06T21:13:42.889Z,9.43
2018-04-06T21:16:11.854Z,10.32
2018-04-06T21:18:40.417Z,8.45
2018-04-06T21:21:08.962Z,9.02
2018-04-06T21:23:37.605Z,8.73
2018-04-06T21:26:06.380Z,7.45
2018-04-06T21:28:34.964Z,12.02
2018-04-06T21:31:03.708Z,8.95
2018-04-06T21:33:32.229Z,8.57
2018-04-06T21:36:01.148Z,9.30
2018-04-06T21:38:30.183Z,9.80
2018-04-06T21:40:58.991Z,9.27
2018-04-06T21:43:27.575Z,8.63
2018-04-06T21:45:56.160Z,10.13
2018-04-06T21:48:24.757Z,11.57
2018-04-06T21:50:53.673Z,8.63
2018-04-06T21:53:22.241Z,11.07
2018-04-06T21:55:50.909Z,10.57
2018-04-06T21:58:19.455Z,10.23
2018-04-06T22:00:48.053Z,11.12
2018-04-06T22:03:16.637Z,11.60
2018-04-06T22:05:45.718Z,9.13
2018-04-06T22:08:14.402Z,7.40
2018-04-06T22:10:43.293Z,8.63
2018-04-06T22:13:11.834Z,10.40
2018-04-06T22:15:40.706Z,9.27
2018-04-06T22:18:09.342Z,8.50
2018-04-06T22:20:37.958Z,11.60
2018-04-06T22:23:06.659Z,8.85
2018-04-06T22:25:35.614Z,13.30
2018-04-06T22:28:04.229Z,11.12
2018-04-06T22:30:32.886Z,8.65
2018-04-06T22:33:02.494Z,9.50
2018-04-06T22:35:31.417Z,13.35
2018-04-06T22:37:59.924Z,9.93
2018-04-06T22:40:28.575Z,10.82
2018-04-06T22:42:57.194Z,7.97
2018-04-06T22:45:26.055Z,8.73
2018-04-06T22:47:54.612Z,10.25
2018-04-06T22:50:23.172Z,11.90
2018-04-06T22:52:51.894Z,9.55
2018-04-06T22:55:20.693Z,10.15
2018-04-06T22:57:49.232Z,9.45
2018-04-06T23:00:17.859Z,9.13
2018-04-06T23:02:46.544Z,8.90
2018-04-06T23:05:18.288Z,12.27
2018-04-06T23:07:46.885Z,10.88
2018-04-06T23:10:15.402Z,9.48
2018-04-06T23:12:43.936Z,12.27
2018-04-06T23:15:12.538Z,11.55
2018-04-06T23:17:41.080Z,12.65
2018-04-06T23:20:09.931Z,13.73
2018-04-06T23:22:38.665Z,13.27
2018-04-06T23:25:08.809Z,11.98
2018-04-06T23:27:37.393Z,12.57
2018-04-06T23:30:06.935Z,12.55
2018-04-06T23:32:35.621Z,11.57
2018-04-06T23:35:06.018Z,11.88
2018-04-06T23:37:34.687Z,11.20
2018-04-06T23:40:03.263Z,11.45
2018-04-06T23:42:31.933Z,13.25
2018-04-06T23:45:01.812Z,11.70
2018-04-06T23:47:30.440Z,10.15
2018-04-06T23:49:58.977Z,11.50
2018-04-06T23:52:27.569Z,13.23
2018-04-06T23:54:57.478Z,10.98
2018-04-06T23:57:26.034Z,12.13
2018-04-06T23:59:54.590Z,12.10
